Time;durP1;ratioP1;P1;durP2;ratioP2;P2;SDS_P1;SDS_P2;PMS_P1;PMS_P2;Temp;Humidity;BMP_temperature;BMP_pressure;BME280_temperature;BME280_humidity;BME280_pressure;Samples;Min_cycle;Max_cycle;Signal;HPM_P1;HPM_P2
2021/01/10 00:01:33;;;;;;;24.90;14.83;;;2.70;99.90;;;;;;5108210;28;20297;-83
2021/01/10 00:03:59;;;;;;;26.97;15.63;;;2.60;99.90;;;;;;5108628;28;20212;-82
2021/01/10 00:06:25;;;;;;;27.03;15.30;;;2.60;99.90;;;;;;5109325;28;20226;-85
2021/01/10 00:08:52;;;;;;;28.77;15.10;;;2.70;99.90;;;;;;5110119;28;20707;-84
2021/01/10 00:11:18;;;;;;;26.30;15.07;;;2.60;99.90;;;;;;5113141;28;20296;-84
2021/01/10 00:13:45;;;;;;;28.00;15.30;;;2.70;99.90;;;;;;5117263;27;20220;-85
2021/01/10 00:16:12;;;;;;;24.67;15.37;;;2.60;99.90;;;;;;5117289;27;20635;-84
2021/01/10 00:18:38;;;;;;;29.67;15.93;;;2.60;99.90;;;;;;5117036;27;20925;-84
2021/01/10 00:21:04;;;;;;;27.53;15.43;;;2.60;99.90;;;;;;5116948;27;20204;-84
2021/01/10 00:23:31;;;;;;;28.47;15.33;;;2.60;99.90;;;;;;5117131;27;20198;-84
2021/01/10 00:25:57;;;;;;;29.50;15.70;;;2.60;99.90;;;;;;5117249;27;20229;-84
2021/01/10 00:28:23;;;;;;;29.33;15.87;;;2.60;99.90;;;;;;5117393;27;20675;-85
2021/01/10 00:30:51;;;;;;;29.53;15.73;;;2.60;99.90;;;;;;5116681;27;20292;-84
2021/01/10 00:33:17;;;;;;;30.27;16.50;;;2.60;99.90;;;;;;5116275;28;20695;-83
2021/01/10 00:35:43;;;;;;;27.97;15.57;;;2.60;99.90;;;;;;5116804;27;20967;-87
2021/01/10 00:38:10;;;;;;;29.73;15.73;;;2.60;99.90;;;;;;5116703;27;20724;-83
2021/01/10 00:40:36;;;;;;;31.20;16.57;;;2.60;99.90;;;;;;5116384;27;20202;-84
2021/01/10 00:43:04;;;;;;;29.27;15.97;;;2.70;99.90;;;;;;5116258;27;20209;-82
2021/01/10 00:45:31;;;;;;;28.97;16.03;;;2.60;99.90;;;;;;5114823;27;20280;-80
2021/01/10 00:47:58;;;;;;;27.93;14.47;;;2.60;99.90;;;;;;5114804;27;20250;-82
2021/01/10 00:50:24;;;;;;;29.03;15.33;;;2.60;99.90;;;;;;5114183;28;20205;-81
2021/01/10 00:52:51;;;;;;;24.47;14.13;;;2.70;99.90;;;;;;5114820;27;20355;-81
2021/01/10 00:55:17;;;;;;;27.53;14.87;;;2.60;99.90;;;;;;5114668;27;20341;-80
2021/01/10 00:57:43;;;;;;;30.33;15.50;;;2.60;99.90;;;;;;5115235;27;20225;-80
2021/01/10 01:00:13;;;;;;;25.07;15.10;;;2.60;99.90;;;;;;5114628;27;20288;-80
2021/01/10 01:02:39;;;;;;;28.40;15.53;;;2.60;99.90;;;;;;5114827;27;20234;-80
2021/01/10 01:05:09;;;;;;;27.37;14.17;;;2.60;99.90;;;;;;5115091;27;20339;-81
2021/01/10 01:07:35;;;;;;;24.83;14.60;;;2.60;99.90;;;;;;5115160;28;20264;-83
2021/01/10 01:10:01;;;;;;;26.47;13.97;;;2.60;99.90;;;;;;5115486;27;20262;-82
2021/01/10 01:12:28;;;;;;;26.37;13.87;;;2.60;99.90;;;;;;5115210;27;20656;-83
2021/01/10 01:14:54;;;;;;;26.40;14.43;;;2.60;99.90;;;;;;5115827;27;20240;-83
2021/01/10 01:17:20;;;;;;;25.07;14.17;;;2.60;99.90;;;;;;5115386;27;20206;-82
2021/01/10 01:19:47;;;;;;;22.87;13.77;;;2.60;99.90;;;;;;5115136;28;20257;-80
2021/01/10 01:22:14;;;;;;;25.77;13.27;;;2.60;99.90;;;;;;5112523;27;20293;-78
2021/01/10 01:24:40;;;;;;;21.23;13.53;;;2.60;99.90;;;;;;5110656;28;21012;-78
2021/01/10 01:27:06;;;;;;;20.33;13.30;;;2.60;99.90;;;;;;5111059;28;20234;-80
2021/01/10 01:29:33;;;;;;;22.07;13.47;;;2.70;99.90;;;;;;5111142;28;20205;-80
2021/01/10 01:31:59;;;;;;;21.60;13.23;;;2.70;99.90;;;;;;5111132;28;20214;-80
2021/01/10 01:34:25;;;;;;;22.10;13.63;;;2.70;99.90;;;;;;5111192;28;20308;-80
2021/01/10 01:36:52;;;;;;;19.67;12.50;;;2.70;99.90;;;;;;5111234;28;20202;-81
2021/01/10 01:39:19;;;;;;;19.33;12.23;;;2.70;99.90;;;;;;5110563;28;20920;-80
2021/01/10 01:41:46;;;;;;;18.77;12.43;;;2.70;99.90;;;;;;5110596;27;20206;-80
2021/01/10 01:44:12;;;;;;;17.90;12.23;;;2.70;99.90;;;;;;5110419;28;20246;-81
2021/01/10 01:46:38;;;;;;;19.67;11.63;;;2.70;99.90;;;;;;5110792;28;20232;-80
2021/01/10 01:49:07;;;;;;;20.67;13.17;;;2.70;99.90;;;;;;5110761;28;20210;-81
2021/01/10 01:51:34;;;;;;;21.43;13.10;;;2.70;99.90;;;;;;5110934;27;20285;-81
2021/01/10 01:54:01;;;;;;;21.87;12.87;;;2.80;99.90;;;;;;5110594;28;20208;-81
2021/01/10 01:56:28;;;;;;;24.30;13.67;;;2.80;99.90;;;;;;5110339;28;20233;-81
2021/01/10 01:58:59;;;;;;;23.53;13.00;;;2.70;99.90;;;;;;5110588;28;20198;-80
2021/01/10 02:01:27;;;;;;;18.07;11.73;;;2.70;99.90;;;;;;5119335;27;20207;-79
2021/01/10 02:03:59;;;;;;;20.87;12.77;;;2.70;99.90;;;;;;5110093;28;20199;-79
2021/01/10 02:06:29;;;;;;;21.53;13.00;;;2.70;99.90;;;;;;5121736;27;20227;-78
2021/01/10 02:09:08;;;;;;;23.37;12.93;;;2.60;99.90;;;;;;5130971;27;20196;-78
2021/01/10 02:11:39;;;;;;;21.10;12.13;;;2.60;99.90;;;;;;5130370;27;20190;-78
2021/01/10 02:14:08;;;;;;;17.67;11.87;;;2.60;99.90;;;;;;5130106;27;20186;-78
2021/01/10 02:16:37;;;;;;;15.77;11.10;;;2.60;99.90;;;;;;5130515;27;20660;-78
2021/01/10 02:19:07;;;;;;;19.73;12.17;;;2.60;99.90;;;;;;5130007;27;20678;-82
2021/01/10 02:21:35;;;;;;;15.40;10.80;;;2.60;99.90;;;;;;5131022;27;20201;-82
2021/01/10 02:24:06;;;;;;;16.47;11.10;;;2.60;99.90;;;;;;5130452;27;20254;-81
2021/01/10 02:26:33;;;;;;;17.20;10.13;;;2.50;99.90;;;;;;5130603;27;20238;-81
2021/01/10 02:29:00;;;;;;;16.00;10.40;;;2.50;99.90;;;;;;5131480;27;20211;-85
2021/01/10 02:31:32;;;;;;;15.37;10.93;;;2.50;99.90;;;;;;5132972;27;20296;-86
2021/01/10 02:34:01;;;;;;;15.93;11.03;;;2.50;99.90;;;;;;5132633;27;20189;-85
2021/01/10 02:36:32;;;;;;;19.53;10.90;;;2.50;99.90;;;;;;5132757;27;20209;-86
2021/01/10 02:39:04;;;;;;;15.67;10.30;;;2.50;99.90;;;;;;5132183;27;20186;-81
2021/01/10 02:41:39;;;;;;;14.60;10.00;;;2.50;99.90;;;;;;5132965;27;20186;-84
2021/01/10 02:44:16;;;;;;;19.77;11.67;;;2.60;99.90;;;;;;5131572;27;20224;-83
2021/01/10 02:46:46;;;;;;;17.63;11.13;;;2.60;99.90;;;;;;5131266;27;20276;-83
2021/01/10 02:49:13;;;;;;;19.77;11.73;;;2.60;99.90;;;;;;5131165;27;20193;-83
2021/01/10 02:51:39;;;;;;;17.60;11.47;;;2.60;99.90;;;;;;5131168;27;20666;-83
2021/01/10 02:54:05;;;;;;;16.53;11.50;;;2.50;99.90;;;;;;5131168;27;20567;-83
2021/01/10 02:56:38;;;;;;;16.17;10.80;;;2.60;99.90;;;;;;5130759;27;20239;-84
2021/01/10 02:59:06;;;;;;;14.13;10.20;;;2.60;99.90;;;;;;5130581;27;20237;-83
2021/01/10 03:01:34;;;;;;;18.60;10.70;;;2.50;99.90;;;;;;5131143;27;20295;-83
2021/01/10 03:04:02;;;;;;;15.60;9.97;;;2.60;99.90;;;;;;5131372;27;20254;-85
2021/01/10 03:06:28;;;;;;;14.93;10.13;;;2.50;99.90;;;;;;5131234;27;20282;-84
2021/01/10 03:08:55;;;;;;;15.60;10.97;;;2.60;99.90;;;;;;5130803;27;20297;-84
2021/01/10 03:11:22;;;;;;;18.60;10.70;;;2.60;99.90;;;;;;5130630;27;20212;-82
2021/01/10 03:13:49;;;;;;;15.43;10.17;;;2.60;99.90;;;;;;5132062;27;20690;-85
2021/01/10 03:16:16;;;;;;;16.13;10.63;;;2.60;99.90;;;;;;5132186;27;20288;-86
2021/01/10 03:18:43;;;;;;;14.83;10.50;;;2.50;99.90;;;;;;5132217;27;20205;-87
2021/01/10 03:21:09;;;;;;;13.33;9.63;;;2.50;99.90;;;;;;5130542;27;20201;-82
2021/01/10 03:23:35;;;;;;;13.63;9.47;;;2.50;99.90;;;;;;5129242;27;20212;-82
2021/01/10 03:26:02;;;;;;;17.10;10.60;;;2.50;99.90;;;;;;5129338;27;20237;-82
2021/01/10 03:28:28;;;;;;;15.43;10.23;;;2.50;99.90;;;;;;5128936;27;20792;-81
2021/01/10 03:30:55;;;;;;;13.30;9.40;;;2.50;99.90;;;;;;5129317;27;20273;-85
2021/01/10 03:33:22;;;;;;;14.07;8.83;;;2.50;99.90;;;;;;5131364;27;20225;-86
2021/01/10 03:35:49;;;;;;;13.30;8.97;;;2.50;99.90;;;;;;5131080;27;20209;-85
2021/01/10 03:38:15;;;;;;;11.97;8.40;;;2.50;99.90;;;;;;5130784;27;20810;-85
2021/01/10 03:40:42;;;;;;;12.60;9.27;;;2.50;99.90;;;;;;5129967;27;20652;-83
2021/01/10 03:43:08;;;;;;;11.97;8.57;;;2.40;99.90;;;;;;5129419;27;20212;-82
2021/01/10 03:45:34;;;;;;;11.90;8.50;;;2.40;99.90;;;;;;5128736;27;20567;-83
2021/01/10 03:48:02;;;;;;;11.90;7.83;;;2.40;99.90;;;;;;5129438;27;20227;-83
2021/01/10 03:50:28;;;;;;;12.10;8.70;;;2.40;99.90;;;;;;5129042;27;20320;-84
2021/01/10 03:52:55;;;;;;;11.00;8.40;;;2.40;99.90;;;;;;5128924;27;20207;-82
2021/01/10 03:55:21;;;;;;;13.60;9.13;;;2.40;99.90;;;;;;5128929;27;20251;-80
2021/01/10 03:57:47;;;;;;;12.93;8.77;;;2.40;99.90;;;;;;5128928;27;20737;-82
2021/01/10 04:00:14;;;;;;;13.13;8.77;;;2.40;99.90;;;;;;5128678;27;20636;-79
2021/01/10 04:02:41;;;;;;;12.93;8.63;;;2.40;99.90;;;;;;5128792;27;20215;-80
2021/01/10 04:05:09;;;;;;;12.13;8.57;;;2.40;99.90;;;;;;5128463;27;20426;-80
2021/01/10 04:07:35;;;;;;;12.10;8.60;;;2.40;99.90;;;;;;5128691;27;20225;-82
2021/01/10 04:10:02;;;;;;;13.97;8.53;;;2.40;99.90;;;;;;5129192;27;20305;-82
2021/01/10 04:12:29;;;;;;;11.53;8.73;;;2.40;99.90;;;;;;5129390;27;20205;-82
2021/01/10 04:14:56;;;;;;;10.83;7.60;;;2.40;99.90;;;;;;5129042;27;20197;-82
2021/01/10 04:17:25;;;;;;;10.13;8.07;;;2.40;99.90;;;;;;5128996;27;20202;-82
2021/01/10 04:19:51;;;;;;;10.43;7.87;;;2.40;99.90;;;;;;5128517;27;20683;-82
2021/01/10 04:22:19;;;;;;;10.77;7.93;;;2.50;99.90;;;;;;5128771;27;20220;-82
2021/01/10 04:24:46;;;;;;;9.00;7.03;;;2.50;99.90;;;;;;5128710;27;20201;-82
2021/01/10 04:27:12;;;;;;;8.63;7.23;;;2.50;99.90;;;;;;5128326;27;20260;-81
2021/01/10 04:29:38;;;;;;;9.17;7.17;;;2.50;99.90;;;;;;5128685;27;20209;-81
2021/01/10 04:32:05;;;;;;;9.63;7.33;;;2.50;99.90;;;;;;5128441;27;20316;-81
2021/01/10 04:34:31;;;;;;;9.43;6.97;;;2.40;99.90;;;;;;5127911;27;20202;-82
2021/01/10 04:36:57;;;;;;;9.07;7.77;;;2.40;99.90;;;;;;5128183;27;20201;-81
2021/01/10 04:39:25;;;;;;;10.13;7.90;;;2.40;99.90;;;;;;5128327;27;20209;-82
2021/01/10 04:41:52;;;;;;;11.17;8.33;;;2.40;99.90;;;;;;5128346;27;20305;-82
2021/01/10 04:44:19;;;;;;;11.33;7.83;;;2.50;99.90;;;;;;5128289;27;20255;-81
2021/01/10 04:46:46;;;;;;;11.27;8.27;;;2.40;99.90;;;;;;5128091;27;20233;-81
2021/01/10 04:49:12;;;;;;;11.20;8.33;;;2.40;99.90;;;;;;5128316;27;20198;-81
2021/01/10 04:51:39;;;;;;;11.63;7.83;;;2.40;99.90;;;;;;5128325;27;20232;-81
2021/01/10 04:54:07;;;;;;;13.57;9.23;;;2.40;99.90;;;;;;5128334;27;20197;-81
2021/01/10 04:56:36;;;;;;;11.47;8.17;;;2.40;99.90;;;;;;5127814;27;20285;-82
2021/01/10 04:59:06;;;;;;;12.13;8.60;;;2.40;99.90;;;;;;5130786;27;20209;-81
2021/01/10 05:01:36;;;;;;;10.20;8.17;;;2.30;99.90;;;;;;5132301;27;20205;-82
2021/01/10 05:04:04;;;;;;;11.87;7.80;;;2.30;99.90;;;;;;5132151;27;20589;-84
2021/01/10 05:06:34;;;;;;;11.07;8.00;;;2.30;99.90;;;;;;5132014;27;20233;-84
2021/01/10 05:09:01;;;;;;;10.33;7.97;;;2.30;99.90;;;;;;5132696;27;20189;-83
2021/01/10 05:11:29;;;;;;;10.07;8.07;;;2.30;99.90;;;;;;5132765;27;20197;-83
2021/01/10 05:13:56;;;;;;;8.87;7.70;;;2.30;99.90;;;;;;5132544;27;20623;-83
2021/01/10 05:16:22;;;;;;;9.73;7.67;;;2.30;99.90;;;;;;5132762;27;20215;-83
2021/01/10 05:18:50;;;;;;;9.97;7.93;;;2.30;99.90;;;;;;5132344;27;20660;-83
2021/01/10 05:21:19;;;;;;;9.73;7.63;;;2.30;99.90;;;;;;5132600;27;20205;-83
2021/01/10 05:23:45;;;;;;;10.60;7.80;;;2.30;99.90;;;;;;5132295;27;20247;-82
2021/01/10 05:26:11;;;;;;;8.87;7.13;;;2.30;99.90;;;;;;5131913;27;20226;-83
2021/01/10 05:28:38;;;;;;;9.37;7.53;;;2.30;99.90;;;;;;5132007;27;20739;-84
2021/01/10 05:31:10;;;;;;;10.17;8.03;;;2.20;99.90;;;;;;5133397;27;20296;-85
2021/01/10 05:33:50;;;;;;;9.53;7.33;;;2.20;99.90;;;;;;5132886;27;20190;-84
2021/01/10 05:36:27;;;;;;;9.90;6.97;;;2.20;99.90;;;;;;5131988;27;20723;-84
2021/01/10 05:38:54;;;;;;;7.90;6.97;;;2.30;99.90;;;;;;5132607;27;20840;-85
2021/01/10 05:41:23;;;;;;;7.67;6.13;;;2.20;99.90;;;;;;5132295;27;20296;-84
2021/01/10 05:44:02;;;;;;;7.87;6.47;;;2.20;99.90;;;;;;5132391;27;20225;-84
2021/01/10 05:46:32;;;;;;;6.73;5.87;;;2.20;99.90;;;;;;5132208;27;20235;-84
2021/01/10 05:49:00;;;;;;;7.40;6.33;;;2.20;99.90;;;;;;5133505;27;20632;-85
2021/01/10 05:51:28;;;;;;;7.57;6.70;;;2.20;99.90;;;;;;5133393;27;20553;-86
2021/01/10 05:53:55;;;;;;;7.57;5.80;;;2.20;99.90;;;;;;5133664;27;20206;-85
2021/01/10 05:56:22;;;;;;;6.00;5.40;;;2.10;99.90;;;;;;5132809;27;20339;-88
2021/01/10 05:58:56;;;;;;;6.47;5.80;;;2.10;99.90;;;;;;5132074;27;20205;-87
2021/01/10 06:01:23;;;;;;;7.33;6.03;;;2.10;99.90;;;;;;5131954;27;20295;-85
2021/01/10 06:03:52;;;;;;;6.33;5.53;;;2.10;99.90;;;;;;5131334;27;20321;-84
2021/01/10 06:06:18;;;;;;;6.80;5.97;;;2.10;99.90;;;;;;5130826;27;20312;-84
2021/01/10 06:08:45;;;;;;;6.50;5.77;;;2.10;99.90;;;;;;5131001;27;20237;-84
2021/01/10 06:11:26;;;;;;;7.17;6.47;;;2.20;99.90;;;;;;5132340;27;20211;-84
2021/01/10 06:13:55;;;;;;;8.43;7.10;;;2.20;99.90;;;;;;5131814;27;20208;-84
2021/01/10 06:16:24;;;;;;;6.93;5.87;;;2.20;99.90;;;;;;5131516;27;20201;-84
2021/01/10 06:18:55;;;;;;;6.03;5.47;;;2.20;99.90;;;;;;5131977;27;20260;-84
2021/01/10 06:21:23;;;;;;;5.40;4.90;;;2.20;99.90;;;;;;5131404;27;20194;-84
2021/01/10 06:23:55;;;;;;;6.80;6.00;;;2.20;99.90;;;;;;5131897;27;20688;-87
2021/01/10 06:26:23;;;;;;;9.07;7.00;;;2.20;99.90;;;;;;5133838;27;20232;-88
2021/01/10 06:29:00;;;;;;;9.33;7.27;;;2.20;99.90;;;;;;5133768;27;20731;-88
2021/01/10 06:31:30;;;;;;;9.57;7.90;;;2.10;99.90;;;;;;5133560;27;20722;-89
2021/01/10 06:34:04;;;;;;;8.90;6.80;;;2.00;99.90;;;;;;5132919;27;20284;-83
2021/01/10 06:36:33;;;;;;;8.27;6.80;;;2.10;99.90;;;;;;5130544;27;20724;-83
2021/01/10 06:39:09;;;;;;;7.40;5.97;;;2.10;99.90;;;;;;5131098;27;20257;-85
2021/01/10 06:42:07;;;;;;;6.17;5.57;;;2.10;99.90;;;;;;5130746;27;20197;-83
2021/01/10 06:44:39;;;;;;;8.63;6.93;;;2.00;99.90;;;;;;5124727;27;20270;-83
2021/01/10 06:47:06;;;;;;;11.87;8.40;;;2.00;99.90;;;;;;5130751;27;20334;-84
2021/01/10 06:49:34;;;;;;;13.27;9.40;;;2.00;99.90;;;;;;5130309;27;20285;-83
2021/01/10 06:52:04;;;;;;;12.07;8.87;;;1.90;99.90;;;;;;5130377;27;20197;-83
2021/01/10 06:54:30;;;;;;;13.10;9.17;;;1.90;99.90;;;;;;5129968;27;20205;-82
2021/01/10 06:56:57;;;;;;;13.17;8.50;;;1.90;99.90;;;;;;5131849;27;20237;-87
2021/01/10 06:59:23;;;;;;;13.33;9.70;;;1.90;99.90;;;;;;5131910;27;20303;-86
2021/01/10 07:02:00;;;;;;;14.93;9.77;;;1.90;99.90;;;;;;5132268;27;20230;-86
2021/01/10 07:04:56;;;;;;;13.80;9.67;;;1.80;99.90;;;;;;5131905;27;20219;-85
2021/01/10 07:07:37;;;;;;;11.87;9.03;;;1.90;99.90;;;;;;5130438;27;20247;-82
2021/01/10 07:10:07;;;;;;;13.13;9.30;;;1.90;99.90;;;;;;5129833;27;20197;-82
2021/01/10 07:12:33;;;;;;;13.33;9.57;;;1.90;99.90;;;;;;5129510;27;20201;-82
2021/01/10 07:15:28;;;;;;;13.57;9.60;;;1.90;99.90;;;;;;5129684;27;20233;-83
2021/01/10 07:18:05;;;;;;;13.10;9.27;;;1.80;99.90;;;;;;5129552;27;20213;-82
2021/01/10 07:20:40;;;;;;;16.27;9.87;;;1.70;99.90;;;;;;5128407;27;20194;-82
2021/01/10 07:23:40;;;;;;;12.23;9.43;;;1.80;99.90;;;;;;5129533;27;20228;-83
2021/01/10 07:26:39;;;;;;;14.63;10.37;;;1.80;99.90;;;;;;5129652;27;20204;-82
2021/01/10 07:29:25;;;;;;;9.87;7.53;;;1.80;99.90;;;;;;5130755;27;20244;-84
2021/01/10 07:31:59;;;;;;;7.40;6.57;;;1.60;99.90;;;;;;5130039;27;20282;-81
2021/01/10 07:34:26;;;;;;;7.33;6.27;;;1.60;99.90;;;;;;5129163;27;20764;-81
2021/01/10 07:36:55;;;;;;;8.83;6.90;;;1.60;99.90;;;;;;5129173;27;20201;-81
2021/01/10 07:39:24;;;;;;;7.53;6.73;;;1.60;99.90;;;;;;5129125;27;20304;-81
2021/01/10 07:41:51;;;;;;;6.70;5.97;;;1.60;99.90;;;;;;5128775;27;20237;-81
2021/01/10 07:44:21;;;;;;;8.00;7.20;;;1.60;99.90;;;;;;5129081;27;20217;-87
2021/01/10 07:46:57;;;;;;;8.07;7.23;;;1.60;99.90;;;;;;5131124;27;20691;-85
2021/01/10 07:49:25;;;;;;;7.87;6.57;;;1.60;99.90;;;;;;5131173;27;20197;-86
2021/01/10 07:51:52;;;;;;;7.13;5.90;;;1.60;99.90;;;;;;5131590;27;20215;-86
2021/01/10 07:54:48;;;;;;;6.00;5.23;;;1.50;99.90;;;;;;5131199;27;20306;-85
2021/01/10 07:57:25;;;;;;;7.27;5.73;;;1.40;99.90;;;;;;5130024;27;20281;-81
2021/01/10 08:00:14;;;;;;;6.80;5.80;;;1.50;99.90;;;;;;5128641;27;20204;-81
2021/01/10 08:02:58;;;;;;;6.57;5.87;;;1.50;99.90;;;;;;5123911;27;20691;-81
2021/01/10 08:05:32;;;;;;;6.70;6.00;;;1.50;99.90;;;;;;5128386;27;20240;-81
2021/01/10 08:08:05;;;;;;;7.13;6.30;;;1.60;99.90;;;;;;5128798;27;20252;-81
2021/01/10 08:10:46;;;;;;;6.77;5.60;;;1.60;99.90;;;;;;5129648;27;20218;-85
2021/01/10 08:13:29;;;;;;;7.20;5.77;;;1.60;99.90;;;;;;5128554;27;20205;-80
2021/01/10 08:15:56;;;;;;;6.10;5.50;;;1.60;99.90;;;;;;5117413;28;20649;-82
2021/01/10 08:18:24;;;;;;;6.33;5.43;;;1.50;99.90;;;;;;5114302;27;20285;-80
2021/01/10 08:20:51;;;;;;;5.77;5.00;;;1.50;99.90;;;;;;5116088;28;20203;-80
2021/01/10 08:23:19;;;;;;;6.23;5.63;;;1.50;99.90;;;;;;5115910;28;20684;-81
2021/01/10 08:25:51;;;;;;;7.30;5.60;;;1.50;99.90;;;;;;5118726;28;20203;-82
2021/01/10 08:28:19;;;;;;;5.63;5.13;;;1.50;99.90;;;;;;5115276;28;20213;-80
2021/01/10 08:30:46;;;;;;;6.47;5.80;;;1.40;99.90;;;;;;5119568;27;20292;-81
2021/01/10 08:33:19;;;;;;;7.13;6.00;;;1.40;99.90;;;;;;5120423;27;20198;-80
2021/01/10 08:35:45;;;;;;;6.90;6.20;;;1.50;99.90;;;;;;5123901;27;20211;-81
2021/01/10 08:38:12;;;;;;;9.10;7.07;;;1.50;99.90;;;;;;5111710;28;20292;-81
2021/01/10 08:40:39;;;;;;;8.97;7.30;;;1.40;99.90;;;;;;5111560;28;20223;-77
2021/01/10 08:43:06;;;;;;;7.53;6.83;;;1.30;99.90;;;;;;5112221;28;20235;-81
2021/01/10 08:45:32;;;;;;;9.67;8.50;;;1.40;99.90;;;;;;5111521;27;20255;-81
2021/01/10 08:48:02;;;;;;;8.33;7.20;;;1.40;99.90;;;;;;5111107;28;20232;-81
2021/01/10 08:50:38;;;;;;;9.57;7.87;;;1.40;99.90;;;;;;5108761;28;20257;-82
2021/01/10 08:53:05;;;;;;;9.23;7.67;;;1.50;99.90;;;;;;5109521;28;20607;-81
2021/01/10 08:55:32;;;;;;;8.63;7.33;;;1.60;99.90;;;;;;5109414;28;20292;-82
2021/01/10 08:58:01;;;;;;;8.13;7.30;;;1.60;99.90;;;;;;5109516;27;20695;-82
2021/01/10 09:00:28;;;;;;;8.87;7.90;;;1.60;99.90;;;;;;5109412;28;20267;-82
2021/01/10 09:02:54;;;;;;;8.53;7.33;;;1.70;99.90;;;;;;5109466;28;20301;-82
2021/01/10 09:05:24;;;;;;;8.53;7.13;;;1.70;99.90;;;;;;5109441;28;20297;-82
2021/01/10 09:07:54;;;;;;;8.20;7.40;;;1.70;99.90;;;;;;5108803;28;20229;-81
2021/01/10 09:10:24;;;;;;;8.50;7.53;;;1.50;99.90;;;;;;5108647;28;20537;-81
2021/01/10 09:12:53;;;;;;;7.83;7.00;;;1.50;99.90;;;;;;5108426;28;20244;-82
2021/01/10 09:15:22;;;;;;;7.60;6.73;;;1.50;99.90;;;;;;5108984;28;20209;-81
2021/01/10 09:17:52;;;;;;;7.70;6.90;;;1.50;99.90;;;;;;5108918;28;20626;-82
2021/01/10 09:20:21;;;;;;;8.47;7.63;;;1.40;99.90;;;;;;5108927;28;20569;-82
2021/01/10 09:22:49;;;;;;;11.33;9.77;;;1.40;99.90;;;;;;5118495;27;20294;-77
2021/01/10 09:25:18;;;;;;;14.97;13.47;;;1.50;99.90;;;;;;5118004;27;20205;-76
2021/01/10 09:28:05;;;;;;;8.53;7.33;;;1.50;99.90;;;;;;5120885;27;20628;-81
2021/01/10 09:30:32;;;;;;;8.00;7.00;;;1.50;99.90;;;;;;5121540;27;20718;-81
2021/01/10 09:32:59;;;;;;;7.57;6.77;;;1.50;99.90;;;;;;5129512;27;20210;-81
2021/01/10 09:35:26;;;;;;;6.80;6.20;;;1.50;99.90;;;;;;5128790;27;20232;-81
2021/01/10 09:37:52;;;;;;;7.93;7.13;;;1.50;99.90;;;;;;5128056;27;20682;-81
2021/01/10 09:40:19;;;;;;;7.47;6.77;;;1.50;99.90;;;;;;5128412;27;20204;-81
2021/01/10 09:42:48;;;;;;;7.37;6.67;;;1.60;99.90;;;;;;5128900;27;20221;-81
2021/01/10 09:45:16;;;;;;;9.83;8.03;;;1.60;99.90;;;;;;5128024;27;20205;-81
2021/01/10 09:47:43;;;;;;;8.40;7.50;;;1.60;99.90;;;;;;5128412;27;20240;-81
2021/01/10 09:50:14;;;;;;;8.77;6.93;;;1.50;99.90;;;;;;5127791;27;20229;-80
2021/01/10 09:52:51;;;;;;;7.67;6.47;;;1.50;99.90;;;;;;5128681;27;20203;-81
2021/01/10 09:55:17;;;;;;;6.77;6.03;;;1.60;99.90;;;;;;5128838;27;20283;-80
2021/01/10 09:57:44;;;;;;;7.57;6.77;;;1.60;99.90;;;;;;5128818;27;20308;-81
2021/01/10 10:00:15;;;;;;;8.27;6.93;;;1.60;99.90;;;;;;5127948;27;20304;-81
2021/01/10 10:02:43;;;;;;;9.80;8.60;;;1.60;99.90;;;;;;5120174;27;20337;-81
2021/01/10 10:05:13;;;;;;;8.97;7.57;;;1.70;99.90;;;;;;5110171;28;20622;-81
2021/01/10 10:07:41;;;;;;;7.33;6.57;;;1.70;99.90;;;;;;5110007;27;20228;-81
2021/01/10 10:10:19;;;;;;;7.13;6.23;;;1.80;99.90;;;;;;5110106;28;20266;-82
2021/01/10 10:12:53;;;;;;;10.47;7.50;;;1.70;99.90;;;;;;5110052;28;20190;-82
2021/01/10 10:15:20;;;;;;;7.90;7.10;;;1.70;99.90;;;;;;5110335;28;20575;-81
2021/01/10 10:17:47;;;;;;;7.40;6.70;;;1.70;99.90;;;;;;5109621;28;20273;-81
2021/01/10 10:20:14;;;;;;;6.13;5.53;;;1.70;99.90;;;;;;5109498;28;20209;-81
2021/01/10 10:22:40;;;;;;;6.70;6.00;;;1.70;99.90;;;;;;5127936;27;20201;-81
2021/01/10 10:25:09;;;;;;;6.27;5.67;;;1.60;99.90;;;;;;5125443;27;20613;-80
2021/01/10 10:27:52;;;;;;;5.87;5.30;;;1.50;99.90;;;;;;5129923;27;20594;-81
2021/01/10 10:30:19;;;;;;;6.47;5.87;;;1.50;99.90;;;;;;5130236;27;20194;-81
2021/01/10 10:32:46;;;;;;;5.90;5.30;;;1.60;99.90;;;;;;5130150;27;20208;-81
2021/01/10 10:35:13;;;;;;;5.87;5.37;;;1.80;99.90;;;;;;5130154;27;20208;-81
2021/01/10 10:37:39;;;;;;;5.67;5.10;;;1.90;99.90;;;;;;5129720;27;20202;-81
2021/01/10 10:40:07;;;;;;;5.90;5.30;;;2.00;99.90;;;;;;5129873;27;20215;-80
2021/01/10 10:42:33;;;;;;;5.87;5.30;;;2.00;99.90;;;;;;5129920;27;20233;-81
2021/01/10 10:45:00;;;;;;;9.23;6.10;;;1.90;99.90;;;;;;5129651;27;20225;-81
2021/01/10 10:47:26;;;;;;;5.93;5.40;;;1.90;99.90;;;;;;5129580;27;20724;-81
2021/01/10 10:49:53;;;;;;;6.50;5.90;;;1.80;99.90;;;;;;5129661;27;20300;-80
2021/01/10 10:52:19;;;;;;;5.10;4.70;;;1.80;99.90;;;;;;5129420;27;20586;-80
2021/01/10 10:54:46;;;;;;;6.13;5.43;;;1.90;99.90;;;;;;5129439;27;20742;-81
2021/01/10 10:57:12;;;;;;;5.50;5.07;;;2.10;99.90;;;;;;5128791;27;20301;-81
2021/01/10 10:59:39;;;;;;;5.93;5.20;;;2.20;99.90;;;;;;5123866;27;20233;-80
2021/01/10 11:02:08;;;;;;;5.10;4.60;;;2.40;99.90;;;;;;5120423;27;20246;-76
2021/01/10 11:04:35;;;;;;;7.80;6.53;;;2.50;99.90;;;;;;5118695;27;20202;-76
2021/01/10 11:07:02;;;;;;;7.80;7.03;;;2.50;99.90;;;;;;5120214;27;20700;-78
2021/01/10 11:09:29;;;;;;;5.80;5.30;;;2.50;99.90;;;;;;5116967;27;20664;-80
2021/01/10 11:11:55;;;;;;;5.60;5.13;;;2.70;99.90;;;;;;5116384;27;20205;-80
2021/01/10 11:14:21;;;;;;;5.53;5.03;;;2.60;99.90;;;;;;5113718;27;20686;-80
2021/01/10 11:16:50;;;;;;;5.80;5.20;;;2.60;99.90;;;;;;5114914;27;20213;-80
2021/01/10 11:19:16;;;;;;;6.57;5.97;;;2.50;99.90;;;;;;5121745;27;20193;-82
2021/01/10 11:21:45;;;;;;;4.83;4.43;;;2.40;99.90;;;;;;5119349;27;20875;-80
2021/01/10 11:24:13;;;;;;;6.57;4.83;;;2.40;99.90;;;;;;5115865;27;20206;-80
2021/01/10 11:26:40;;;;;;;5.47;4.97;;;2.40;99.90;;;;;;5116570;27;20218;-80
2021/01/10 11:29:08;;;;;;;5.40;4.90;;;2.40;99.90;;;;;;5116238;27;20198;-80
2021/01/10 11:31:35;;;;;;;5.53;5.03;;;2.30;99.90;;;;;;5117915;27;20217;-80
2021/01/10 11:34:02;;;;;;;5.27;4.80;;;2.50;99.90;;;;;;5122948;27;20221;-80
2021/01/10 11:36:28;;;;;;;5.03;4.63;;;2.80;99.90;;;;;;5113998;27;20305;-79
2021/01/10 11:38:56;;;;;;;4.40;4.00;;;3.00;99.90;;;;;;5118068;27;20716;-79
2021/01/10 11:41:23;;;;;;;4.73;4.33;;;3.20;99.90;;;;;;5115029;27;20221;-80
2021/01/10 11:43:51;;;;;;;5.00;4.50;;;3.10;99.90;;;;;;5118317;27;20270;-80
2021/01/10 11:46:18;;;;;;;5.07;4.63;;;3.10;99.90;;;;;;5117911;27;20282;-80
2021/01/10 11:48:46;;;;;;;5.53;5.03;;;3.00;99.90;;;;;;5120607;27;20239;-80
2021/01/10 11:51:14;;;;;;;5.03;4.63;;;3.00;99.90;;;;;;5115196;27;20197;-80
2021/01/10 11:53:41;;;;;;;5.27;4.87;;;2.80;99.90;;;;;;5117506;27;20204;-80
2021/01/10 11:56:08;;;;;;;4.63;4.23;;;2.70;99.90;;;;;;5113275;27;20247;-80
2021/01/10 11:58:38;;;;;;;4.80;4.40;;;2.60;99.90;;;;;;5117927;27;20214;-80
2021/01/10 12:01:04;;;;;;;4.70;4.30;;;2.50;99.90;;;;;;5120076;27;20222;-80
2021/01/10 12:03:31;;;;;;;5.97;5.47;;;2.50;99.90;;;;;;5113810;28;20194;-77
2021/01/10 12:05:57;;;;;;;9.37;8.60;;;2.60;99.90;;;;;;5114921;27;20204;-77
2021/01/10 12:08:24;;;;;;;6.20;5.70;;;2.70;99.90;;;;;;5115700;27;20308;-79
2021/01/10 12:10:50;;;;;;;5.57;5.07;;;2.70;99.90;;;;;;5112389;27;20242;-80
2021/01/10 12:13:17;;;;;;;5.70;5.13;;;2.70;99.90;;;;;;5116460;27;20565;-80
2021/01/10 12:15:46;;;;;;;5.40;4.90;;;2.60;99.90;;;;;;5116393;27;20304;-82
2021/01/10 12:18:14;;;;;;;5.27;4.67;;;2.60;99.90;;;;;;5115852;28;20198;-81
2021/01/10 12:20:41;;;;;;;5.37;4.67;;;2.60;99.90;;;;;;5117000;27;20197;-81
2021/01/10 12:23:07;;;;;;;4.97;4.47;;;2.50;99.90;;;;;;5115205;28;20569;-77
2021/01/10 12:25:34;;;;;;;6.30;5.77;;;2.50;99.90;;;;;;5107368;28;20289;-77
2021/01/10 12:28:00;;;;;;;5.27;4.77;;;2.50;99.90;;;;;;5107533;28;20563;-77
2021/01/10 12:30:27;;;;;;;4.80;4.27;;;2.50;99.90;;;;;;5107698;28;20206;-83
2021/01/10 12:32:57;;;;;;;5.53;5.03;;;2.50;99.90;;;;;;5108391;28;20239;-80
2021/01/10 12:35:24;;;;;;;5.10;4.70;;;2.50;99.90;;;;;;5118821;28;20202;-81
2021/01/10 12:37:50;;;;;;;5.47;4.97;;;2.50;99.90;;;;;;5116085;27;20198;-80
2021/01/10 12:40:18;;;;;;;5.90;5.40;;;2.40;99.90;;;;;;5118150;27;20205;-80
2021/01/10 12:42:44;;;;;;;5.43;4.93;;;2.30;99.90;;;;;;5116808;28;20271;-81
2021/01/10 12:45:13;;;;;;;5.73;5.20;;;2.20;99.90;;;;;;5115777;27;20296;-81
2021/01/10 12:47:41;;;;;;;6.00;5.40;;;2.20;99.90;;;;;;5114923;28;20419;-80
2021/01/10 12:50:09;;;;;;;6.67;6.07;;;2.20;99.90;;;;;;5114507;28;20210;-80
2021/01/10 12:52:37;;;;;;;7.10;6.40;;;2.10;99.90;;;;;;5115299;27;20202;-80
2021/01/10 12:55:04;;;;;;;6.00;5.40;;;2.10;99.90;;;;;;5117401;27;20274;-81
2021/01/10 12:57:30;;;;;;;5.90;5.40;;;2.20;99.90;;;;;;5116883;28;20591;-80
2021/01/10 12:59:57;;;;;;;7.13;5.53;;;2.20;99.90;;;;;;5115803;27;20270;-81